Time;durP1;ratioP1;P1;durP2;ratioP2;P2;SDS_P1;SDS_P2;PMS_P1;PMS_P2;Temp;Humidity;BMP_temperature;BMP_pressure;BME280_temperature;BME280_humidity;BME280_pressure;Samples;Min_cycle;Max_cycle;Signal;HPM_P1;HPM_P2
2021/10/17 00:01:01;;;;;;;3.60;1.98;;;;;;;;;;4995066;28;20051;-74
2021/10/17 00:03:28;;;;;;;4.40;2.50;;;;;;;;;;4977568;28;20405;-74
2021/10/17 00:05:57;;;;;;;4.18;2.22;;;;;;;;;;4994786;28;20407;-76
2021/10/17 00:08:25;;;;;;;4.15;2.30;;;;;;;;;;4994516;28;20047;-72
2021/10/17 00:10:54;;;;;;;5.65;2.22;;;;;;;;;;4977687;28;20049;-75
2021/10/17 00:13:22;;;;;;;4.55;2.45;;;;;;;;;;4977063;28;20409;-72
2021/10/17 00:15:51;;;;;;;2.95;2.20;;;;;;;;;;4977107;28;20471;-75
2021/10/17 00:18:19;;;;;;;4.03;2.25;;;;;;;;;;4961265;28;20458;-74
2021/10/17 00:20:47;;;;;;;5.47;2.50;;;;;;;;;;4977036;28;20046;-74
2021/10/17 00:23:15;;;;;;;6.45;2.45;;;;;;;;;;4994468;28;20068;-72
2021/10/17 00:25:42;;;;;;;4.25;2.33;;;;;;;;;;4994348;28;20066;-76
2021/10/17 00:28:09;;;;;;;2.95;2.45;;;;;;;;;;4976961;28;20042;-72
2021/10/17 00:30:45;;;;;;;4.60;2.35;;;;;;;;;;4994378;28;20395;-75
2021/10/17 00:33:13;;;;;;;5.72;2.63;;;;;;;;;;4976654;28;20051;-76
2021/10/17 00:35:41;;;;;;;5.75;2.85;;;;;;;;;;4976550;28;20069;-74
2021/10/17 00:38:08;;;;;;;3.25;2.72;;;;;;;;;;4976701;28;20109;-76
2021/10/17 00:40:36;;;;;;;9.07;2.40;;;;;;;;;;4976386;28;20046;-76
2021/10/17 00:43:03;;;;;;;4.07;2.50;;;;;;;;;;4993851;28;20073;-76
2021/10/17 00:45:36;;;;;;;4.72;2.90;;;;;;;;;;4994141;28;20049;-76
2021/10/17 00:48:05;;;;;;;5.55;2.65;;;;;;;;;;4994090;28;20064;-72
2021/10/17 00:50:32;;;;;;;4.97;2.78;;;;;;;;;;4994217;28;20066;-76
2021/10/17 00:53:00;;;;;;;3.95;2.72;;;;;;;;;;4976421;28;20042;-75
2021/10/17 00:55:29;;;;;;;5.20;2.83;;;;;;;;;;4976476;28;20387;-75
2021/10/17 00:58:17;;;;;;;6.38;2.58;;;;;;;;;;4994015;28;20125;-76
2021/10/17 01:00:45;;;;;;;4.68;2.60;;;;;;;;;;4976583;28;20419;-75
2021/10/17 01:03:14;;;;;;;4.38;2.72;;;;;;;;;;4994022;28;20046;-76
2021/10/17 01:05:41;;;;;;;6.93;2.97;;;;;;;;;;4994329;28;20046;-73
2021/10/17 01:08:09;;;;;;;5.22;2.75;;;;;;;;;;4960908;28;20410;-72
2021/10/17 01:10:37;;;;;;;5.65;2.83;;;;;;;;;;4974781;28;20134;-76
2021/10/17 01:13:04;;;;;;;8.88;3.67;;;;;;;;;;4991650;28;20442;-75
2021/10/17 01:15:34;;;;;;;5.93;2.78;;;;;;;;;;4974841;28;20050;-72
2021/10/17 01:18:02;;;;;;;4.05;2.40;;;;;;;;;;4976382;28;20515;-73
2021/10/17 01:20:30;;;;;;;5.50;2.33;;;;;;;;;;4960556;28;20060;-74
2021/10/17 01:23:00;;;;;;;7.15;3.10;;;;;;;;;;4960640;28;20050;-75
2021/10/17 01:25:28;;;;;;;5.75;2.58;;;;;;;;;;4976344;28;20120;-75
2021/10/17 01:27:56;;;;;;;4.43;2.28;;;;;;;;;;4976530;28;20108;-74
2021/10/17 01:30:24;;;;;;;4.70;2.80;;;;;;;;;;4960514;28;20432;-76
2021/10/17 01:32:51;;;;;;;5.93;2.28;;;;;;;;;;4976350;28;20042;-73
2021/10/17 01:35:19;;;;;;;6.95;2.90;;;;;;;;;;4976225;28;20578;-74
2021/10/17 01:37:46;;;;;;;4.55;2.65;;;;;;;;;;4993376;28;20097;-73
2021/10/17 01:40:14;;;;;;;4.60;3.00;;;;;;;;;;4976158;28;20038;-73
2021/10/17 01:42:42;;;;;;;5.18;2.80;;;;;;;;;;4960240;28;20046;-74
2021/10/17 01:45:11;;;;;;;4.25;2.60;;;;;;;;;;4976315;28;20047;-72
2021/10/17 01:47:45;;;;;;;5.93;2.47;;;;;;;;;;4976223;28;20104;-74
2021/10/17 01:50:14;;;;;;;4.53;2.67;;;;;;;;;;4976181;28;20049;-76
2021/10/17 01:52:42;;;;;;;5.70;2.90;;;;;;;;;;4978295;28;20092;-73
2021/10/17 01:55:10;;;;;;;4.95;3.00;;;;;;;;;;4979658;28;20534;-73
2021/10/17 01:57:38;;;;;;;6.10;3.63;;;;;;;;;;4979744;28;20070;-76
2021/10/17 02:00:10;;;;;;;5.32;3.13;;;;;;;;;;4964293;28;20511;-75
2021/10/17 02:02:42;;;;;;;8.50;3.35;;;;;;;;;;4979851;28;20046;-76
2021/10/17 02:05:18;;;;;;;6.18;2.80;;;;;;;;;;4979696;28;20395;-76
2021/10/17 02:07:47;;;;;;;5.95;3.60;;;;;;;;;;4964224;28;20038;-76
2021/10/17 02:10:15;;;;;;;4.78;3.30;;;;;;;;;;4980486;28;20042;-73
2021/10/17 02:12:45;;;;;;;5.88;3.30;;;;;;;;;;4979330;28;20062;-73
2021/10/17 02:15:14;;;;;;;11.75;3.40;;;;;;;;;;4979260;28;20051;-74
2021/10/17 02:17:44;;;;;;;7.53;3.40;;;;;;;;;;4979168;28;20123;-73
2021/10/17 02:20:12;;;;;;;6.40;3.25;;;;;;;;;;4979668;28;20046;-74
2021/10/17 02:22:40;;;;;;;5.85;3.33;;;;;;;;;;4979145;28;20105;-75
2021/10/17 02:25:09;;;;;;;6.47;3.10;;;;;;;;;;4978847;28;20058;-75
2021/10/17 02:27:38;;;;;;;7.47;3.25;;;;;;;;;;4979187;28;20077;-75
2021/10/17 02:30:08;;;;;;;7.10;3.42;;;;;;;;;;4979131;28;20134;-76
2021/10/17 02:32:45;;;;;;;5.15;3.22;;;;;;;;;;4964083;28;20066;-74
2021/10/17 02:35:38;;;;;;;5.35;3.17;;;;;;;;;;4993223;28;20050;-74
2021/10/17 02:38:06;;;;;;;6.43;3.75;;;;;;;;;;4978947;28;20042;-75
2021/10/17 02:40:36;;;;;;;5.78;3.53;;;;;;;;;;4978794;28;20116;-72
2021/10/17 02:43:08;;;;;;;7.15;3.40;;;;;;;;;;4979136;28;20042;-75
2021/10/17 02:45:38;;;;;;;6.03;3.92;;;;;;;;;;4996528;28;20439;-76
2021/10/17 02:48:05;;;;;;;6.88;2.95;;;;;;;;;;4996765;28;20075;-75
2021/10/17 02:50:34;;;;;;;4.95;3.35;;;;;;;;;;4979212;28;20050;-74
2021/10/17 02:53:02;;;;;;;4.38;2.83;;;;;;;;;;4978969;28;20049;-72
2021/10/17 02:55:33;;;;;;;4.07;2.55;;;;;;;;;;4978536;28;20050;-74
2021/10/17 02:58:06;;;;;;;3.90;2.88;;;;;;;;;;4978361;28;20540;-73
2021/10/17 03:00:34;;;;;;;5.63;3.10;;;;;;;;;;4978530;28;20069;-72
2021/10/17 03:03:01;;;;;;;4.80;2.67;;;;;;;;;;4978640;28;20038;-73
2021/10/17 03:05:35;;;;;;;4.32;3.10;;;;;;;;;;4978816;28;20129;-74
2021/10/17 03:08:05;;;;;;;4.55;3.17;;;;;;;;;;4978750;28;20045;-72
2021/10/17 03:10:33;;;;;;;4.68;3.25;;;;;;;;;;4978668;28;20046;-76
2021/10/17 03:13:02;;;;;;;4.57;3.10;;;;;;;;;;4962342;28;20137;-75
2021/10/17 03:15:29;;;;;;;4.68;3.28;;;;;;;;;;4995610;28;20084;-72
2021/10/17 03:17:58;;;;;;;4.85;2.63;;;;;;;;;;4978300;28;20043;-76
2021/10/17 03:20:25;;;;;;;6.95;3.13;;;;;;;;;;4978444;28;20043;-75
2021/10/17 03:22:53;;;;;;;3.65;2.55;;;;;;;;;;4978260;28;20047;-73
2021/10/17 03:25:21;;;;;;;4.25;2.67;;;;;;;;;;4978129;28;20051;-75
2021/10/17 03:27:51;;;;;;;2.65;2.45;;;;;;;;;;4978067;28;20050;-73
2021/10/17 03:30:24;;;;;;;5.05;2.92;;;;;;;;;;4977759;28;20062;-72
2021/10/17 03:32:52;;;;;;;5.30;2.67;;;;;;;;;;4977817;28;20122;-73
2021/10/17 03:35:19;;;;;;;5.20;2.65;;;;;;;;;;4995309;28;20039;-74
2021/10/17 03:37:47;;;;;;;5.82;2.78;;;;;;;;;;4977991;28;20101;-76
2021/10/17 03:40:15;;;;;;;6.32;2.67;;;;;;;;;;4977213;28;20081;-73
2021/10/17 03:42:48;;;;;;;2.95;2.30;;;;;;;;;;4976963;28;20054;-75
2021/10/17 03:45:16;;;;;;;2.92;2.55;;;;;;;;;;4977573;28;20050;-73
2021/10/17 03:47:45;;;;;;;5.47;2.72;;;;;;;;;;4977499;28;20054;-74
2021/10/17 03:50:14;;;;;;;4.00;2.80;;;;;;;;;;4976942;28;20397;-73
2021/10/17 03:52:42;;;;;;;5.03;3.30;;;;;;;;;;4977859;28;20538;-74
2021/10/17 03:55:12;;;;;;;5.57;3.72;;;;;;;;;;4977581;28;20129;-75
2021/10/17 03:57:44;;;;;;;6.15;4.10;;;;;;;;;;4977254;28;20423;-74
2021/10/17 04:00:11;;;;;;;4.82;3.75;;;;;;;;;;4976873;28;20038;-73
2021/10/17 04:02:40;;;;;;;4.15;3.75;;;;;;;;;;4995349;28;20491;-73
2021/10/17 04:05:10;;;;;;;6.38;3.53;;;;;;;;;;4961999;28;20101;-75
2021/10/17 04:07:39;;;;;;;5.93;3.65;;;;;;;;;;4977471;28;20089;-73
2021/10/17 04:10:08;;;;;;;5.53;3.15;;;;;;;;;;4977514;28;20571;-72
2021/10/17 04:12:36;;;;;;;5.05;3.15;;;;;;;;;;4977001;28;20554;-73
2021/10/17 04:15:06;;;;;;;4.95;3.20;;;;;;;;;;4976754;28;20089;-75
2021/10/17 04:17:40;;;;;;;6.75;3.30;;;;;;;;;;4977136;28;20050;-73
2021/10/17 04:20:08;;;;;;;8.25;4.28;;;;;;;;;;4976950;28;20137;-73
2021/10/17 04:22:35;;;;;;;7.15;4.22;;;;;;;;;;4977059;28;20575;-74
2021/10/17 04:25:05;;;;;;;4.85;3.72;;;;;;;;;;4976843;28;20106;-73
2021/10/17 04:27:34;;;;;;;6.85;3.65;;;;;;;;;;4977585;28;20049;-73
2021/10/17 04:30:04;;;;;;;3.58;3.28;;;;;;;;;;4976525;28;20585;-75
2021/10/17 04:32:32;;;;;;;4.97;2.50;;;;;;;;;;4960452;28;20082;-73
2021/10/17 04:35:00;;;;;;;4.10;2.17;;;;;;;;;;4976844;28;20043;-73
2021/10/17 04:37:29;;;;;;;2.47;2.28;;;;;;;;;;4994281;28;20042;-74
2021/10/17 04:39:57;;;;;;;4.45;2.60;;;;;;;;;;4976567;28;20038;-76
2021/10/17 04:42:25;;;;;;;6.70;3.20;;;;;;;;;;4994211;28;20078;-74
2021/10/17 04:44:53;;;;;;;5.25;4.30;;;;;;;;;;4976804;28;20054;-74
2021/10/17 04:47:21;;;;;;;7.45;4.38;;;;;;;;;;4976455;28;20070;-74
2021/10/17 04:49:48;;;;;;;6.80;3.67;;;;;;;;;;4976582;28;20152;-73
2021/10/17 04:52:16;;;;;;;5.72;3.30;;;;;;;;;;4976461;28;20038;-74
2021/10/17 04:54:44;;;;;;;4.38;2.63;;;;;;;;;;4960450;28;20062;-73
2021/10/17 04:57:11;;;;;;;3.53;3.03;;;;;;;;;;4976382;28;20042;-73
2021/10/17 04:59:39;;;;;;;2.65;2.25;;;;;;;;;;4960105;28;20046;-73
2021/10/17 05:02:09;;;;;;;4.65;2.30;;;;;;;;;;4976122;28;20093;-73
2021/10/17 05:04:38;;;;;;;4.97;2.67;;;;;;;;;;4977204;28;20046;-73
2021/10/17 05:07:14;;;;;;;3.53;2.53;;;;;;;;;;4976100;28;20078;-73
2021/10/17 05:09:51;;;;;;;5.05;2.70;;;;;;;;;;4976088;28;20062;-76
2021/10/17 05:12:25;;;;;;;4.47;2.67;;;;;;;;;;4959394;28;20105;-72
2021/10/17 05:14:54;;;;;;;3.58;2.80;;;;;;;;;;4975836;28;20069;-76
2021/10/17 05:17:22;;;;;;;5.75;2.63;;;;;;;;;;4975894;28;20051;-74
2021/10/17 05:19:50;;;;;;;2.80;2.53;;;;;;;;;;4975780;28;20042;-74
2021/10/17 05:22:19;;;;;;;2.83;2.50;;;;;;;;;;4975281;28;20101;-74
2021/10/17 05:24:46;;;;;;;4.50;2.83;;;;;;;;;;4993982;28;20074;-74
2021/10/17 05:27:15;;;;;;;3.40;2.70;;;;;;;;;;4977862;28;20081;-75
2021/10/17 05:29:42;;;;;;;3.85;2.38;;;;;;;;;;4979829;28;20053;-76
2021/10/17 05:32:10;;;;;;;5.78;2.67;;;;;;;;;;4979859;28;20116;-72
2021/10/17 05:34:38;;;;;;;5.07;2.70;;;;;;;;;;4979779;28;20049;-74
2021/10/17 05:37:05;;;;;;;4.53;2.58;;;;;;;;;;4979867;28;20578;-74
2021/10/17 05:39:33;;;;;;;4.07;2.78;;;;;;;;;;4980024;28;20403;-74
2021/10/17 05:42:03;;;;;;;4.90;2.90;;;;;;;;;;4979453;28;20101;-76
2021/10/17 05:44:31;;;;;;;4.45;2.70;;;;;;;;;;4979651;28;20566;-73
2021/10/17 05:46:58;;;;;;;5.22;2.97;;;;;;;;;;4980219;28;20046;-74
2021/10/17 05:49:26;;;;;;;5.43;3.05;;;;;;;;;;4979972;28;20046;-76
2021/10/17 05:51:53;;;;;;;8.82;3.38;;;;;;;;;;4979892;28;20042;-75
2021/10/17 05:54:21;;;;;;;4.47;2.85;;;;;;;;;;4979531;28;20108;-74
2021/10/17 05:56:49;;;;;;;4.82;2.90;;;;;;;;;;4979638;28;20435;-72
2021/10/17 05:59:17;;;;;;;6.47;2.90;;;;;;;;;;4979058;28;20054;-77
2021/10/17 06:01:46;;;;;;;6.43;2.95;;;;;;;;;;4979641;28;20198;-74
2021/10/17 06:04:19;;;;;;;4.25;3.00;;;;;;;;;;4963926;28;20070;-75
2021/10/17 06:06:59;;;;;;;5.82;3.35;;;;;;;;;;4979661;28;20391;-74
2021/10/17 06:09:28;;;;;;;8.82;3.05;;;;;;;;;;4979601;28;20108;-75
2021/10/17 06:11:55;;;;;;;5.60;3.90;;;;;;;;;;4978995;28;20504;-72
2021/10/17 06:14:23;;;;;;;10.45;4.68;;;;;;;;;;4978714;28;20042;-76
2021/10/17 06:16:50;;;;;;;6.78;5.20;;;;;;;;;;4979158;28;20149;-76
2021/10/17 06:19:18;;;;;;;10.07;5.20;;;;;;;;;;4979173;28;20046;-75
2021/10/17 06:21:52;;;;;;;6.22;5.28;;;;;;;;;;4963904;28;20424;-74
2021/10/17 06:24:21;;;;;;;8.45;4.80;;;;;;;;;;4979019;28;20113;-73
2021/10/17 06:26:50;;;;;;;8.38;4.80;;;;;;;;;;4979105;28;20077;-75
2021/10/17 06:29:19;;;;;;;9.25;5.00;;;;;;;;;;4946947;28;20054;-73
2021/10/17 06:31:46;;;;;;;7.45;5.00;;;;;;;;;;4996031;28;20047;-74
2021/10/17 06:34:15;;;;;;;13.00;6.70;;;;;;;;;;4996311;28;20045;-76
2021/10/17 06:36:43;;;;;;;6.40;4.97;;;;;;;;;;4962574;28;20038;-77
2021/10/17 06:39:11;;;;;;;7.07;5.15;;;;;;;;;;4978381;28;20046;-74
2021/10/17 06:41:39;;;;;;;8.93;4.82;;;;;;;;;;4978548;28;20043;-77
2021/10/17 06:44:16;;;;;;;11.32;5.45;;;;;;;;;;4978458;28;20042;-74
2021/10/17 06:46:45;;;;;;;11.05;6.15;;;;;;;;;;4978366;28;20129;-73
2021/10/17 06:49:15;;;;;;;16.65;8.48;;;;;;;;;;4978924;28;20109;-76
2021/10/17 06:51:43;;;;;;;15.93;10.57;;;;;;;;;;4978304;28;20070;-72
2021/10/17 06:54:12;;;;;;;14.02;8.52;;;;;;;;;;4995995;28;20039;-76
2021/10/17 06:56:41;;;;;;;16.10;8.57;;;;;;;;;;4978261;28;20600;-76
2021/10/17 06:59:10;;;;;;;13.23;7.60;;;;;;;;;;4978288;28;20042;-72
2021/10/17 07:01:38;;;;;;;14.32;9.15;;;;;;;;;;4978192;28;20133;-76
2021/10/17 07:04:07;;;;;;;14.98;8.98;;;;;;;;;;4978411;28;20089;-77
2021/10/17 07:06:40;;;;;;;13.77;7.10;;;;;;;;;;4978723;28;20113;-77
2021/10/17 07:09:10;;;;;;;10.10;6.80;;;;;;;;;;4962958;28;20142;-78
2021/10/17 07:11:52;;;;;;;9.97;6.40;;;;;;;;;;4977776;28;20046;-77
2021/10/17 07:14:34;;;;;;;11.15;6.53;;;;;;;;;;4977910;28;20281;-75
2021/10/17 07:17:27;;;;;;;9.32;5.30;;;;;;;;;;4978322;28;20399;-76
2021/10/17 07:20:06;;;;;;;9.43;5.18;;;;;;;;;;4978134;28;20046;-75
2021/10/17 07:22:36;;;;;;;9.65;5.20;;;;;;;;;;4977200;28;20046;-76
2021/10/17 07:25:04;;;;;;;6.50;4.00;;;;;;;;;;4977465;28;20054;-76
2021/10/17 07:27:32;;;;;;;4.95;3.40;;;;;;;;;;4977227;28;20038;-73
2021/10/17 07:30:04;;;;;;;4.78;2.92;;;;;;;;;;4995156;28;20153;-75
2021/10/17 07:32:37;;;;;;;4.10;2.78;;;;;;;;;;4976692;28;20496;-76
2021/10/17 07:35:09;;;;;;;4.78;2.47;;;;;;;;;;4977395;28;20495;-77
2021/10/17 07:37:39;;;;;;;4.32;2.58;;;;;;;;;;4977482;28;20054;-72
2021/10/17 07:40:13;;;;;;;4.28;3.30;;;;;;;;;;4977372;28;20141;-72
2021/10/17 07:42:46;;;;;;;4.75;3.40;;;;;;;;;;4975590;28;20058;-76
2021/10/17 07:45:21;;;;;;;8.32;3.72;;;;;;;;;;4997838;28;20062;-77
2021/10/17 07:48:02;;;;;;;4.70;3.92;;;;;;;;;;4994608;28;20046;-78
2021/10/17 07:50:31;;;;;;;5.90;4.35;;;;;;;;;;4975877;28;20558;-76
2021/10/17 07:53:00;;;;;;;2.70;2.30;;;;;;;;;;4993994;28;20541;-77
2021/10/17 07:55:33;;;;;;;3.40;2.78;;;;;;;;;;4975289;28;20424;-76
2021/10/17 07:58:04;;;;;;;2.97;2.75;;;;;;;;;;4960753;28;20141;-77
2021/10/17 08:00:45;;;;;;;4.70;2.85;;;;;;;;;;4976730;28;20046;-77
2021/10/17 08:03:39;;;;;;;5.97;2.70;;;;;;;;;;4971603;28;20058;-77
2021/10/17 08:06:26;;;;;;;3.65;2.50;;;;;;;;;;4976758;28;20046;-77
2021/10/17 08:08:55;;;;;;;4.82;2.40;;;;;;;;;;4976402;28;20085;-74
2021/10/17 08:11:23;;;;;;;2.47;2.08;;;;;;;;;;4976715;28;20100;-77
2021/10/17 08:14:01;;;;;;;3.13;2.63;;;;;;;;;;4976819;28;20038;-76
2021/10/17 08:16:37;;;;;;;3.50;2.30;;;;;;;;;;4976831;28;20496;-73
2021/10/17 08:19:05;;;;;;;4.00;2.33;;;;;;;;;;4977872;28;20050;-73
2021/10/17 08:21:36;;;;;;;4.85;2.20;;;;;;;;;;4976291;28;20038;-74
2021/10/17 08:24:07;;;;;;;3.17;2.30;;;;;;;;;;4975595;28;20050;-75
2021/10/17 08:26:40;;;;;;;2.33;2.08;;;;;;;;;;4976203;28;20047;-76
2021/10/17 08:29:38;;;;;;;5.32;2.13;;;;;;;;;;4962856;28;20050;-77
2021/10/17 08:32:10;;;;;;;3.70;2.40;;;;;;;;;;4975321;28;20050;-73
2021/10/17 08:34:44;;;;;;;4.93;2.70;;;;;;;;;;4992291;28;20392;-71
2021/10/17 08:37:13;;;;;;;6.60;2.20;;;;;;;;;;4993168;28;20372;-77
2021/10/17 08:40:00;;;;;;;4.00;2.70;;;;;;;;;;4994016;28;20053;-74
2021/10/17 08:42:54;;;;;;;4.10;2.70;;;;;;;;;;4993270;28;20050;-74
2021/10/17 08:45:35;;;;;;;4.72;2.70;;;;;;;;;;4992639;28;20568;-73
2021/10/17 08:48:08;;;;;;;2.28;2.03;;;;;;;;;;4991793;28;20056;-76
2021/10/17 08:50:47;;;;;;;3.80;2.45;;;;;;;;;;4992375;28;20050;-71
2021/10/17 08:53:16;;;;;;;3.28;2.40;;;;;;;;;;4991012;28;20057;-71
2021/10/17 08:55:59;;;;;;;2.80;2.50;;;;;;;;;;4990354;28;20046;-73
2021/10/17 08:58:34;;;;;;;3.20;2.58;;;;;;;;;;4990696;28;20050;-76
2021/10/17 09:01:18;;;;;;;3.30;2.17;;;;;;;;;;4992213;28;20045;-74
2021/10/17 09:03:58;;;;;;;4.53;2.78;;;;;;;;;;4992207;28;20044;-74
2021/10/17 09:06:37;;;;;;;4.78;2.72;;;;;;;;;;4977643;28;20046;-71
2021/10/17 09:09:13;;;;;;;4.63;2.67;;;;;;;;;;4976480;28;20057;-76
2021/10/17 09:11:51;;;;;;;5.05;3.80;;;;;;;;;;4992229;28;20515;-75
2021/10/17 09:14:23;;;;;;;7.95;4.18;;;;;;;;;;4993152;28;20053;-71
2021/10/17 09:16:52;;;;;;;5.00;3.80;;;;;;;;;;4990344;28;20046;-70
2021/10/17 09:19:28;;;;;;;8.25;4.20;;;;;;;;;;4991504;28;20060;-74
2021/10/17 09:22:06;;;;;;;7.40;4.35;;;;;;;;;;4992891;28;20048;-70
2021/10/17 09:24:36;;;;;;;9.10;3.88;;;;;;;;;;4991533;28;20073;-74
2021/10/17 09:27:17;;;;;;;7.85;3.70;;;;;;;;;;4991274;28;20074;-70
2021/10/17 09:29:49;;;;;;;6.47;5.07;;;;;;;;;;4992781;28;20129;-75
2021/10/17 09:32:19;;;;;;;5.03;3.50;;;;;;;;;;4991435;28;20081;-74
2021/10/17 09:34:52;;;;;;;5.38;3.60;;;;;;;;;;4992562;28;20042;-73
2021/10/17 09:37:21;;;;;;;7.07;3.30;;;;;;;;;;4992644;28;20468;-70
2021/10/17 09:40:21;;;;;;;5.18;3.05;;;;;;;;;;4993225;28;20093;-72
2021/10/17 09:43:05;;;;;;;4.63;3.25;;;;;;;;;;4977468;28;20046;-70
2021/10/17 09:45:41;;;;;;;5.03;3.33;;;;;;;;;;4991536;28;20471;-75
2021/10/17 09:48:09;;;;;;;5.13;3.33;;;;;;;;;;4992205;28;20468;-72
2021/10/17 09:50:38;;;;;;;4.50;3.10;;;;;;;;;;4992336;28;20527;-77
2021/10/17 09:53:08;;;;;;;6.07;3.28;;;;;;;;;;4992331;28;20201;-74
2021/10/17 09:55:37;;;;;;;3.30;2.72;;;;;;;;;;4991318;28;20042;-71
2021/10/17 09:58:06;;;;;;;5.55;2.72;;;;;;;;;;4992832;28;20038;-71
2021/10/17 10:00:34;;;;;;;7.40;2.67;;;;;;;;;;4991225;28;20500;-77
2021/10/17 10:03:03;;;;;;;5.07;2.70;;;;;;;;;;4991138;28;20085;-71
2021/10/17 10:05:31;;;;;;;4.88;2.90;;;;;;;;;;4991503;28;20046;-71
2021/10/17 10:08:03;;;;;;;4.20;2.97;;;;;;;;;;4991756;28;20053;-72
2021/10/17 10:10:36;;;;;;;4.50;2.85;;;;;;;;;;4991184;28;20562;-72
2021/10/17 10:13:04;;;;;;;3.28;2.53;;;;;;;;;;4992268;28;20038;-75
2021/10/17 10:15:32;;;;;;;5.00;2.78;;;;;;;;;;4995181;28;20046;-76
2021/10/17 10:18:04;;;;;;;4.25;2.53;;;;;;;;;;4995527;28;20042;-72
2021/10/17 10:20:32;;;;;;;5.97;3.00;;;;;;;;;;4995958;28;20125;-75
2021/10/17 10:23:00;;;;;;;5.95;3.45;;;;;;;;;;4993760;28;20053;-72
2021/10/17 10:25:29;;;;;;;3.30;2.80;;;;;;;;;;4995341;28;20093;-77
2021/10/17 10:27:57;;;;;;;6.53;2.80;;;;;;;;;;4996249;28;20078;-72
2021/10/17 10:30:29;;;;;;;5.10;2.88;;;;;;;;;;4995124;28;20062;-77
2021/10/17 10:33:05;;;;;;;7.45;3.17;;;;;;;;;;4994488;28;20129;-76
2021/10/17 10:35:34;;;;;;;4.45;2.63;;;;;;;;;;4994477;28;20125;-72
2021/10/17 10:38:03;;;;;;;3.05;2.47;;;;;;;;;;4995672;28;20038;-78
2021/10/17 10:40:31;;;;;;;4.93;2.85;;;;;;;;;;4993952;28;20066;-75
2021/10/17 10:43:12;;;;;;;4.63;2.58;;;;;;;;;;4995137;28;20042;-77
2021/10/17 10:45:40;;;;;;;8.63;2.80;;;;;;;;;;4995668;28;20038;-77
2021/10/17 10:48:14;;;;;;;4.97;3.00;;;;;;;;;;4993999;28;20042;-72
2021/10/17 10:50:44;;;;;;;5.60;3.40;;;;;;;;;;4994309;28;20073;-73
2021/10/17 10:53:33;;;;;;;5.15;3.17;;;;;;;;;;4995117;28;20042;-73
2021/10/17 10:56:01;;;;;;;6.20;2.80;;;;;;;;;;4993519;28;20038;-76
2021/10/17 10:58:37;;;;;;;4.65;2.25;;;;;;;;;;4994184;28;20042;-72
2021/10/17 11:01:04;;;;;;;3.22;2.35;;;;;;;;;;4995221;28;20043;-77
2021/10/17 11:03:44;;;;;;;3.72;2.25;;;;;;;;;;4994901;28;20511;-72
2021/10/17 11:06:12;;;;;;;3.85;2.00;;;;;;;;;;4994709;28;20126;-73
2021/10/17 11:08:42;;;;;;;3.17;2.00;;;;;;;;;;4993788;28;20039;-72
2021/10/17 11:11:10;;;;;;;4.57;2.30;;;;;;;;;;4994188;28;20068;-73
2021/10/17 11:13:46;;;;;;;3.53;2.28;;;;;;;;;;4994948;28;20046;-75
2021/10/17 11:16:20;;;;;;;2.50;2.30;;;;;;;;;;4995210;28;20121;-72
2021/10/17 11:18:58;;;;;;;5.53;2.40;;;;;;;;;;4994751;28;20069;-74
2021/10/17 11:21:33;;;;;;;4.35;2.30;;;;;;;;;;4994630;28;20073;-74
2021/10/17 11:24:01;;;;;;;5.68;2.30;;;;;;;;;;4992361;28;20129;-76
2021/10/17 11:26:29;;;;;;;2.97;2.40;;;;;;;;;;4993742;28;20486;-71
2021/10/17 11:28:59;;;;;;;5.07;2.40;;;;;;;;;;4993681;28;20441;-71
2021/10/17 11:31:27;;;;;;;5.70;2.92;;;;;;;;;;4994801;28;20065;-73
2021/10/17 11:33:54;;;;;;;7.28;2.90;;;;;;;;;;4993577;28;20077;-72
2021/10/17 11:36:22;;;;;;;6.93;2.90;;;;;;;;;;4993026;28;20035;-71
2021/10/17 11:38:53;;;;;;;4.63;2.60;;;;;;;;;;4994494;28;20389;-76
2021/10/17 11:41:21;;;;;;;5.13;2.22;;;;;;;;;;4994287;28;20042;-76
2021/10/17 11:43:52;;;;;;;3.63;2.10;;;;;;;;;;4994348;28;20060;-73
2021/10/17 11:46:23;;;;;;;5.40;2.00;;;;;;;;;;4994088;28;20407;-71
2021/10/17 11:49:02;;;;;;;2.17;1.77;;;;;;;;;;4993141;28;20053;-74
2021/10/17 11:51:29;;;;;;;4.70;2.15;;;;;;;;;;4993069;28;20051;-74
2021/10/17 11:54:00;;;;;;;3.08;1.90;;;;;;;;;;4993888;28;20053;-74
2021/10/17 11:56:31;;;;;;;3.92;2.10;;;;;;;;;;4992324;28;20452;-76
2021/10/17 11:59:09;;;;;;;3.72;2.25;;;;;;;;;;4992279;28;20044;-73
2021/10/17 12:01:36;;;;;;;4.90;2.20;;;;;;;;;;4992965;28;20466;-72
2021/10/17 12:04:05;;;;;;;8.38;2.58;;;;;;;;;;4992896;28;20053;-73
2021/10/17 12:06:35;;;;;;;6.13;2.50;;;;;;;;;;4993790;28;20133;-72
2021/10/17 12:09:02;;;;;;;4.35;2.33;;;;;;;;;;4993968;28;20050;-74
2021/10/17 12:11:31;;;;;;;5.47;2.45;;;;;;;;;;4993036;28;20050;-74
2021/10/17 12:13:59;;;;;;;6.00;2.75;;;;;;;;;;4993702;28;20038;-71
2021/10/17 12:16:31;;;;;;;3.58;2.70;;;;;;;;;;4991565;28;20116;-74
2021/10/17 12:19:03;;;;;;;3.70;2.63;;;;;;;;;;4992683;28;20062;-71
2021/10/17 12:21:40;;;;;;;8.35;2.42;;;;;;;;;;4994076;28;20089;-77
2021/10/17 12:24:09;;;;;;;3.20;2.30;;;;;;;;;;4991454;28;20085;-75
2021/10/17 12:26:50;;;;;;;6.43;2.30;;;;;;;;;;4992295;28;20042;-74
2021/10/17 12:29:18;;;;;;;2.83;2.17;;;;;;;;;;4992458;28;20046;-73
2021/10/17 12:31:50;;;;;;;4.63;2.28;;;;;;;;;;4992843;28;20229;-71
2021/10/17 12:34:36;;;;;;;6.05;2.20;;;;;;;;;;4993121;28;20456;-75
2021/10/17 12:37:04;;;;;;;8.57;2.40;;;;;;;;;;4993062;28;20038;-76
2021/10/17 12:39:32;;;;;;;6.20;2.20;;;;;;;;;;4992998;28;20042;-76
2021/10/17 12:42:00;;;;;;;4.93;2.22;;;;;;;;;;4992024;28;20042;-74
2021/10/17 12:44:28;;;;;;;4.75;2.15;;;;;;;;;;4993309;28;20041;-74
2021/10/17 12:47:03;;;;;;;4.53;1.95;;;;;;;;;;4991908;28;20042;-71
2021/10/17 12:49:39;;;;;;;5.07;2.10;;;;;;;;;;4993530;28;20491;-71
2021/10/17 12:52:09;;;;;;;4.28;1.90;;;;;;;;;;4992512;28;20443;-71
2021/10/17 12:54:40;;;;;;;6.75;1.95;;;;;;;;;;4992821;28;20042;-74
2021/10/17 12:57:09;;;;;;;5.50;2.08;;;;;;;;;;4992789;28;20586;-71
2021/10/17 12:59:51;;;;;;;5.40;2.10;;;;;;;;;;4992930;28;20047;-71
2021/10/17 13:02:22;;;;;;;2.40;1.75;;;;;;;;;;4988282;28;20077;-74
2021/10/17 13:04:52;;;;;;;4.05;1.92;;;;;;;;;;4989337;28;20047;-74
2021/10/17 13:07:26;;;;;;;5.32;2.17;;;;;;;;;;4972611;28;20082;-76
2021/10/17 13:09:55;;;;;;;6.03;2.40;;;;;;;;;;4992028;28;20555;-71
2021/10/17 13:12:24;;;;;;;3.55;1.80;;;;;;;;;;4974124;28;20515;-75
2021/10/17 13:15:04;;;;;;;3.25;1.70;;;;;;;;;;4974659;28;20054;-73
2021/10/17 13:17:32;;;;;;;6.45;1.75;;;;;;;;;;4991588;28;20137;-73
2021/10/17 13:20:02;;;;;;;3.20;1.38;;;;;;;;;;4975416;28;20049;-73
2021/10/17 13:22:31;;;;;;;2.10;1.63;;;;;;;;;;4992521;28;20046;-77
2021/10/17 13:24:58;;;;;;;3.63;1.65;;;;;;;;;;4991639;28;20426;-71
2021/10/17 13:27:26;;;;;;;4.43;1.90;;;;;;;;;;4991809;28;20038;-76
2021/10/17 13:29:56;;;;;;;3.63;1.65;;;;;;;;;;4992219;28;20061;-76
2021/10/17 13:32:27;;;;;;;3.45;1.80;;;;;;;;;;4992918;28;20050;-76
2021/10/17 13:34:56;;;;;;;2.05;1.58;;;;;;;;;;4992636;28;20049;-71
2021/10/17 13:37:23;;;;;;;2.33;1.58;;;;;;;;;;4992452;28;20046;-73
2021/10/17 13:39:51;;;;;;;3.97;1.80;;;;;;;;;;4991652;28;20587;-71
2021/10/17 13:42:19;;;;;;;3.05;1.80;;;;;;;;;;4992259;28;20047;-73
2021/10/17 13:44:46;;;;;;;5.38;1.85;;;;;;;;;;4991664;28;20058;-73
2021/10/17 13:47:15;;;;;;;3.28;1.80;;;;;;;;;;4991000;28;20050;-74
2021/10/17 13:49:43;;;;;;;3.63;2.00;;;;;;;;;;4995915;28;20405;-71
2021/10/17 13:52:12;;;;;;;3.92;1.77;;;;;;;;;;4996244;28;20122;-74
2021/10/17 13:54:39;;;;;;;4.97;1.95;;;;;;;;;;4996399;28;20081;-71
2021/10/17 13:57:07;;;;;;;2.75;2.00;;;;;;;;;;4995913;28;20042;-74
2021/10/17 13:59:35;;;;;;;3.50;1.98;;;;;;;;;;4996417;28;20039;-74
2021/10/17 14:02:03;;;;;;;7.65;2.40;;;;;;;;;;4995283;28;20117;-76
2021/10/17 14:04:30;;;;;;;4.20;2.17;;;;;;;;;;4996134;28;20039;-74
2021/10/17 14:06:58;;;;;;;4.63;2.08;;;;;;;;;;4996073;28;20042;-76
2021/10/17 14:09:27;;;;;;;4.00;2.38;;;;;;;;;;4995737;28;20097;-74
2021/10/17 14:11:55;;;;;;;5.75;2.25;;;;;;;;;;4996588;28;20126;-74
2021/10/17 14:14:24;;;;;;;8.15;2.20;;;;;;;;;;4995609;28;20050;-76
2021/10/17 14:16:51;;;;;;;2.97;1.95;;;;;;;;;;4996347;28;20506;-76
2021/10/17 14:19:19;;;;;;;3.80;2.08;;;;;;;;;;4994767;28;20053;-77
2021/10/17 14:21:48;;;;;;;1.90;1.70;;;;;;;;;;4994658;28;20063;-74
2021/10/17 14:24:17;;;;;;;1.80;1.70;;;;;;;;;;4995059;28;20046;-75
2021/10/17 14:26:45;;;;;;;2.55;2.05;;;;;;;;;;4995960;28;20586;-71
2021/10/17 14:29:13;;;;;;;3.28;2.50;;;;;;;;;;4995763;28;20065;-74
2021/10/17 14:31:40;;;;;;;2.97;2.22;;;;;;;;;;4995769;28;20046;-71
2021/10/17 14:34:08;;;;;;;3.08;2.42;;;;;;;;;;4995715;28;20043;-75
2021/10/17 14:36:35;;;;;;;2.70;2.50;;;;;;;;;;4994118;28;20454;-77
2021/10/17 14:39:03;;;;;;;3.75;2.72;;;;;;;;;;4995406;28;20039;-77
2021/10/17 14:41:31;;;;;;;3.38;2.78;;;;;;;;;;4993913;28;20487;-77
2021/10/17 14:44:00;;;;;;;3.05;2.28;;;;;;;;;;4995183;28;20042;-75
2021/10/17 14:46:28;;;;;;;2.80;2.55;;;;;;;;;;4994517;28;20069;-77
2021/10/17 14:48:55;;;;;;;2.90;2.63;;;;;;;;;;4976672;28;20166;-74
2021/10/17 14:51:24;;;;;;;6.10;3.75;;;;;;;;;;4995192;28;20057;-76
2021/10/17 14:53:51;;;;;;;9.70;5.07;;;;;;;;;;4995089;28;20126;-75
2021/10/17 14:56:19;;;;;;;8.30;4.43;;;;;;;;;;4995351;28;20038;-75
2021/10/17 14:58:46;;;;;;;6.75;3.55;;;;;;;;;;4995015;28;20125;-76
2021/10/17 15:01:14;;;;;;;4.95;2.60;;;;;;;;;;4994928;28;20058;-75
2021/10/17 15:03:44;;;;;;;4.28;2.50;;;;;;;;;;4994145;28;20050;-73